Tiempo atmosférico en la estación meteorológica de A Pobra de Trives, Ourense (840 m.)



Fecha
DESCASC
Temp. máxima en grados centígrados (hora)
DESCASC
Temp. mínima en grados centígrados (hora)
DESCASC
Temp. media en grados centígrados
DESCASC
Racha de viento máxima en m/sg (hora)
DESCASC
Velocidad máxima media en intervalos de 10 minutos(hora)
DESCASC
Precipitaciones diarias en mm
DESCASC
Precipitaciones de 00:00 a 06:00 en mm
DESCASC
Precipitaciones de 06:00 a 12:00 en mm
DESCASC
Precipitaciones de 12:00 a 18:00 en mm
DESCASC
Precipitaciones de 18:00 a 24:00 en mm
DESCASC
23-06-2019 23.2 (17:50) 10.9 (05:40) 17.1 10.83 (02:20) 5.56 (02:30) 14.6 6.8 7.6 0.2 0
22-06-2019 25.5 (15:40) 9.8 (03:40) 17.7 13.06 (14:10) 4.17 (12:50) 0 0 0 0 0
21-06-2019 23.2 (18:30) 9.3 (05:30) 16.3 7.78 (18:10) 3.33 (18:20) 0 0 0 0 0
20-06-2019 19.8 (15:40) 10.2 (00:00) 15 7.5 (15:50) 3.33 (15:40) 13.4 0 0 10.4 3
19-06-2019 22.1 (14:10) 12.1 (00:00) 17.1 7.78 (13:10) 3.89 (16:10) 0 0 0 0 0
18-06-2019 20.5 (16:20) 12.1 (00:00) 16.3 12.22 (16:20) 4.72 (16:20) 0.6 0 0 0 0.6
17-06-2019 24.4 (12:40) 8.3 (00:00) 16.3 10.83 (12:20) 4.72 (11:40) 0 0 0 0 0
16-06-2019 25.1 (18:30) 4.4 (00:00) 14.8 6.94 (19:50) 3.06 (14:00) 0 0 0 0 0
15-06-2019 19.3 (16:50) 7.3 (00:00) 13.3 8.33 (20:10) 3.33 (16:50) 0 0 0 0 0
14-06-2019 18.2 (15:10) 3.5 (00:00) 10.9 10 (17:00) 5.28 (19:10) 0 0 0 0 0
13-06-2019 17 (15:40) 3.1 (00:00) 10 9.44 (14:30) 3.89 (15:10) 0 0 0 0 0
12-06-2019 17.3 (17:00) 3.4 (00:00) 10.3 10 (16:20) 3.89 (15:00) 0 0 0 0 0
11-06-2019 16.3 (17:20) 6.9 (00:00) 11.6 10.28 (14:10) 4.17 (14:10) 0 0 0 0 0
10-06-2019 17.1 (17:30) 4.5 (00:00) 10.8 8.61 (16:30) 3.89 (17:40) 0 0 0 0 0
09-06-2019 17.9 (15:40) 4.7 (00:00) 11.3 9.44 (15:00) 3.89 (14:50) 0 0 0 0 0
08-06-2019 17.6 (14:50) 2.2 (00:00) 9.9 7.5 (15:20) 3.61 (16:00) 0 0 0 0 0
07-06-2019 14 (13:30) 4.8 (00:00) 9.4 11.39 (01:10) 5.28 (01:10) 3.8 2.4 0.6 0.8 0
06-06-2019 15.4 (15:10) 5.4 (00:00) 10.4 17.5 (13:10) 7.5 (20:10) 9.6 0 0 4.4 5.2
05-06-2019 14.3 (13:30) 6.3 (00:00) 10.3 12.78 (16:10) 5.56 (16:20) 7.6 3.2 1 3.2 0.2
04-06-2019 18.7 (16:30) 9.1 (00:00) 13.9 11.39 (12:50) 5.56 (13:20) 0.6 0 0 0.4 0.2
03-06-2019 24.9 (17:30) 12.9 (00:00) 18.9 10 (18:30) 4.44 (19:50) 0 0 0 0 0
02-06-2019 27.1 (16:00) 10.6 (00:00) 18.9 9.72 (14:10) 4.17 (14:30) 0 0 0 0 0
01-06-2019 30.9 (15:00) 12.9 (00:00) 21.9 9.17 (18:20) 3.89 (17:40) 0 0 0 0 0
31-05-2019 30.7 (18:40) 13.1 (00:00) 21.9 6.94 (21:40) 3.33 (23:00) 0 0 0 0 0
30-05-2019 29.2 (18:10) 9.6 (00:00) 19.4 7.5 (20:10) 2.78 (17:10) 0 0 0 0 0
29-05-2019 26.4 (18:10) 5.1 (00:00) 15.7 7.5 (22:30) 3.33 (22:30) 0 0 0 0 0
28-05-2019 21 (17:30) 5.3 (00:00) 13.2 10.83 (17:50) 4.72 (00:10) 0 0 0 0 0
27-05-2019 21.2 (16:30) 9.2 (00:00) 15.2 10.83 (19:10) 4.72 (19:10) 0 0 0 0 0
26-05-2019 23.8 (17:00) 6.7 (00:00) 15.2 10 (15:10) 4.17 (17:30) 0 0 0 0 0
25-05-2019 22.2 (18:20) 5.2 (00:00) 13.7 9.72 (17:00) 4.44 (19:20) 0 0 0 0 0

Gráficas

Temp. máximas Temp. mínimas Temp. medias Precipitaciones Rachas de viento máximas Velocidades máximas media en intervalos de 10 minutos

Datos horarios

Fecha y hora oficial Temperatura (ºC) Velocidad del viento (km/h) Dirección del viento Racha (km/h) Dirección de racha Precipitación (mm) Presión (hPa) Tendencia (hPa) Humedad (%)
2019-06-23 23:00:00 15.9 5 Noroeste 8 Noroeste 0 918.9 0.8 84
2019-06-23 22:00:00 17 4 Noroeste 11 Noroeste 0 918.4 0.6 79
2019-06-23 21:00:00 18 6 Noroeste 10 Noroeste 0 918.3 0.6 77
2019-06-23 20:00:00 19.4 3 Este 21 Oeste 0 918.1 0.1 72
2019-06-23 19:00:00 20.7 9 Sudoeste 23 Sudoeste 0 917.8 -0.2 60
2019-06-23 18:00:00 22.8 10 Sudoeste 27 Sudoeste 0 917.7 -0.4 55
2019-06-23 17:00:00 19.3 8 Este 18 Este 0 918 -0.1 77
2019-06-23 16:00:00 18.4 9 Este 18 Este 0 918 0.1 84
2019-06-23 15:00:00 16.7 7 Este 14 Nordeste 0 918.1 0.5 88
2019-06-23 14:00:00 16.2 6 Este 21 Este 0.2 918.1 0.2 88
2019-06-23 13:00:00 15.6 10 Este 25 Este 0 917.9 0.5 88
2019-06-23 12:00:00 15.1 9 Este 23 Este 0 917.6 0.7 91
2019-06-23 11:00:00 12.6 5 Este 9 Sudeste 1.6 917.9 1.4 94
2019-06-23 10:00:00 12.1 3 Este 9 Este 2.6 917.4 0.7 94
2019-06-23 09:00:00 11.9 3 Noroeste 8 Este 3 916.9 -0.2 94
2019-06-23 08:00:00 11.7 3 Este 10 Nordeste 0.4 916.5 -0.9 93
2019-06-23 07:00:00 11.4 0 Calma 8 Nordeste 0 916.7 -1.3 93
2019-06-23 06:00:00 11 5 Sudeste 15 Norte 1.4 917.1 -1.2 93
2019-06-23 05:00:00 11 4 Este 12 Este 1.2 917.4 0.1 92
2019-06-23 04:00:00 11.4 3 Este 12 Este 3 918 0.7 87
2019-06-23 03:00:00 12.8 9 Oeste 39 Sudoeste 1.2 918.3 0.8 74
2019-06-23 02:00:00 16.1 5 Oeste 16 Nordeste 0 917.3 -0.6 45
2019-06-23 01:00:00 16.4 6 Norte 15 Norte 0 917.3 -0.8 47
2019-06-23 00:00:00 16.8 4 Norte 13 Nordeste 0 917.5 -0.2 50
2019-06-22 23:00:00 17.3 2 Sudeste 10 Sudoeste 0 917.9 0.3 58
2019-06-22 22:00:00 17.9 5 Oeste 12 Noroeste 0 918.1 0.9 56
2019-06-22 21:00:00 19.5 6 Noroeste 23 Oeste 0 917.7 0.2 49
2019-06-22 20:00:00 21 10 Oeste 25 Oeste 0 917.6 0 44
2019-06-22 19:00:00 22.3 11 Oeste 29 Oeste 0 917.2 -0.9 39
2019-06-22 18:00:00 23.7 9 Oeste 28 Sudoeste 0 917.5 -0.7 38
2019-06-22 17:00:00 23.9 8 Sudoeste 26 Sudoeste 0 917.6 -1 33
2019-06-22 16:00:00 24.7 8 Sudoeste 30 Sudoeste 0 918.1 -0.7 31
2019-06-22 15:00:00 24.6 7 Sur 47 Sur 0 918.2 -1 32
2019-06-22 14:00:00 24.4 14 Sur 32 Sudeste 0 918.6 -0.7 39
2019-06-22 13:00:00 22.1 13 Sudeste 28 Sudeste 0 918.8 -0.9 44
2019-06-22 12:00:00 19.9 9 Este 19 Nordeste 0 919.2 -0.8 56
2019-06-22 11:00:00 19.2 11 Este 19 Este 0 919.3 -0.8 60
2019-06-22 10:00:00 16.2 10 Nordeste 27 Este 0 919.7 -0.4 72
2019-06-22 09:00:00 14.2 9 Este 28 Este 0 920 -0.5 75
2019-06-22 08:00:00 11.9 4 Sudeste 14 Nordeste 0 920.1 -0.5 83
2019-06-22 07:00:00 11.6 4 Este 13 Nordeste 0 920.1 -1 82
2019-06-22 06:00:00 10.9 3 Norte 9 Este 0 920.5 -0.8 84
2019-06-22 05:00:00 10.8 5 Norte 8 Norte 0 920.6 -0.9 82
2019-06-22 04:00:00 10 5 Norte 10 Noroeste 0 921.1 -0.8 85
2019-06-22 03:00:00 10.3 7 Norte 13 Noroeste 0 921.3 -0.9 86
2019-06-22 02:00:00 10.7 8 Noroeste 12 Noroeste 0 921.5 -1 83
2019-06-22 01:00:00 11.5 7 Noroeste 13 Noroeste 0 921.9 -0.2 81
2019-06-22 00:00:00 12.9 6 Noroeste 13 Oeste 0 922.2 0.4 77
2019-06-21 23:00:00 14.9 8 Oeste 18 Oeste 0 922.5 0.7 70
2019-06-21 22:00:00 16.1 6 Oeste 12 Sudoeste 0 922.1 0.4 61
2019-06-21 21:00:00 18.4 3 Oeste 21 Oeste 0 921.8 -0.1 51
2019-06-21 20:00:00 20.1 6 Noroeste 24 Oeste 0 921.8 -0.2 44
2019-06-21 19:00:00 22.8 11 Oeste 28 Noroeste 0 921.7 -0.7 39
2019-06-21 18:00:00 23 9 Noroeste 24 Oeste 0 921.9 -0.5 43
2019-06-21 17:00:00 22.6 8 Noroeste 22 Oeste 0 922 -0.8 47
2019-06-21 16:00:00 21.9 6 Oeste 22 Oeste 0 922.4 -0.7 48
2019-06-21 15:00:00 21 7 Norte 17 Norte 0 922.4 -0.9 54
2019-06-21 14:00:00 20.1 4 Noroeste 14 Este 0 922.8 -0.5 60
2019-06-21 13:00:00 18.6 7 Norte 14 Norte 0 923.1 -0.2 59
2019-06-21 12:00:00 16.2 3 Noroeste 13 Noroeste 0 923.3 0.3 68
2019-06-21 11:00:00 15.1 4 Este 12 Este 0 923.3 0.6 67
2019-06-21 10:00:00 12.9 3 Noroeste 10 Noroeste 0 923.3 0.9 92
2019-06-21 09:00:00 10.4 6 Noroeste 11 Noroeste 0 923 0.9 94
2019-06-21 08:00:00 9.7 6 Oeste 10 Oeste 0 922.7 0.5 94
2019-06-21 07:00:00 9.7 4 Oeste 11 Oeste 0 922.4 0.1 95
2019-06-21 06:00:00 9.5 5 Oeste 18 Oeste 0 922.1 -0.3 94
2019-06-21 05:00:00 9.9 5 Noroeste 12 Oeste 0 922.2 0 91
2019-06-21 04:00:00 11.3 3 Norte 12 Oeste 0 922.3 0.1 93
2019-06-21 03:00:00 11.2 5 Oeste 11 Noroeste 0 922.4 0.3 94
2019-06-21 02:00:00 11.3 6 Oeste 16 Oeste 0 922.2 0.5 95
2019-06-21 01:00:00 11.4 5 Noroeste 13 Oeste 0 922.2 1.3 92
2019-06-21 00:00:00 12.2 7 Oeste 13 Oeste 0 922.1 1.3 92
2019-06-20 23:00:00 12.6 7 Oeste 15 Oeste 0 921.7 1.4 92
2019-06-20 22:00:00 13.1 7 Oeste 15 Oeste 0 920.9 0.1 91
2019-06-20 21:00:00 13.7 5 Oeste 23 Oeste 0.2 920.8 0.7 91
2019-06-20 20:00:00 13.7 6 Noroeste 18 Noroeste 1.4 920.3 0.4 90
2019-06-20 19:00:00 14 10 Oeste 25 Sudoeste 1.4 920.8 0.5 88
2019-06-20 18:00:00 15.2 10 Oeste 24 Noroeste 2.4 920.1 -0.4 84
2019-06-20 17:00:00 15.9 9 Oeste 23 Oeste 6 919.9 -0.9 80
2019-06-20 16:00:00 17.4 9 Oeste 27 Noroeste 2 920.3 -0.6 71
2019-06-20 15:00:00 19.2 9 Oeste 23 Oeste 0 920.5 -0.3 59
2019-06-20 14:00:00 18.3 9 Oeste 21 Oeste 0 920.8 0.2 61
2019-06-20 13:00:00 17.6 3 Noroeste 13 Este 0 920.9 0.3 64
2019-06-20 12:00:00 16.3 4 Este 14 Nordeste 0 920.8 0.1 71
2019-06-20 11:00:00 16 6 Nordeste 12 Nordeste 0 920.6 0.1 71
2019-06-20 10:00:00 13.8 3 Nordeste 9 Norte 0 920.6 0 84
2019-06-20 09:00:00 12.2 2 Noroeste 6 Este 0 920.7 0.1 91
2019-06-20 08:00:00 11.7 3 Oeste 7 Oeste 0 920.5 -0.1 93
2019-06-20 07:00:00 10.7 4 Noroeste 12 Noroeste 0 920.6 -0.3 93
2019-06-20 06:00:00 10.4 5 Noroeste 10 Oeste 0 920.6 -0.5 90
2019-06-20 05:00:00 10.9 4 Noroeste 12 Oeste 0 920.6 -0.9 92
2019-06-20 04:00:00 10.7 7 Oeste 13 Oeste 0 920.9 -0.8 91
2019-06-20 03:00:00 12 4 Noroeste 10 Oeste 0 921.1 -0.5 89
2019-06-20 02:00:00 12.2 4 Noroeste 10 Oeste 0 921.5 0.1 90
2019-06-20 01:00:00 11.9 4 Noroeste 12 Oeste 0 921.7 0.5 90
2019-06-20 00:00:00 12.1 5 Oeste 18 Oeste 0 921.6 0.7 87
2019-06-19 23:00:00 13.5 6 Oeste 15 Oeste 0 921.4 0.8 83
2019-06-19 22:00:00 15 4 Oeste 13 Noroeste 0 921.2 0.7 79
2019-06-19 21:00:00 15.9 6 Noroeste 24 Oeste 0 920.9 0.4 74
2019-06-19 20:00:00 16.6 12 Oeste 27 Oeste 0 920.6 0.1 69
2019-06-19 19:00:00 18.3 11 Oeste 28 Oeste 0 920.5 0.2 62
2019-06-19 18:00:00 17 12 Oeste 27 Oeste 0 920.5 0.5 69
2019-06-19 17:00:00 18.1 11 Oeste 25 Oeste 0 920.5 0.5 61
2019-06-19 16:00:00 19.4 12 Oeste 25 Oeste 0 920.3 0.4 54
2019-06-19 15:00:00 20 9 Oeste 26 Oeste 0 920 0.5 54
2019-06-19 14:00:00 21.7 12 Sudoeste 28 Oeste 0 920 0.7 51
2019-06-19 13:00:00 20 12 Noroeste 22 Noroeste 0 919.9 0.7 56
2019-06-19 12:00:00 19.5 5 Sur 15 Sur 0 919.5 0.5 60
2019-06-19 11:00:00 15.8 9 Este 18 Nordeste 0 919.3 1 79
2019-06-19 10:00:00 15.2 3 Nordeste 7 Norte 0 919.2 1.1 80
2019-06-19 09:00:00 13.5 4 Noroeste 9 Noroeste 0 919 1.1 89
2019-06-19 08:00:00 13.1 3 Nordeste 6 Sur 0 918.3 0.5 86
2019-06-19 07:00:00 12.7 3 Noroeste 9 Sudeste 0 918.1 0.1 83
2019-06-19 06:00:00 12.9 2 Nordeste 11 Norte 0 917.9 -0.1 83
2019-06-19 05:00:00 13.1 5 Nordeste 9 Sudoeste 0 917.8 -0.2 81
2019-06-19 04:00:00 12.7 6 Noroeste 19 Noroeste 0 918 -0.2 84
2019-06-19 03:00:00 12.6 4 Oeste 22 Sudoeste 0 918 -0.3 84
2019-06-19 02:00:00 12.7 4 Nordeste 7 Este 0 918 0.2 88
2019-06-19 01:00:00 13.5 3 Sudoeste 8 Norte 0 918.2 0.7 88
2019-06-19 00:00:00 14.1 2 Nordeste 9 Oeste 0 918.3 1 86
2019-06-18 23:00:00 14.5 5 Noroeste 12 Norte 0 917.8 0.9 85
2019-06-18 22:00:00 15 3 Oeste 20 Oeste 0 917.5 0.9 82
2019-06-18 21:00:00 15.9 9 Sudoeste 21 Sur 0.2 917.3 0.7 81
2019-06-18 20:00:00 16.8 9 Sudoeste 30 Sudoeste 0.4 916.9 0.5 80
2019-06-18 19:00:00 18 6 Sudoeste 36 Sudoeste 0 916.6 0.4 68
2019-06-18 18:00:00 18.6 6 Sudoeste 26 Sudeste 0 916.6 0.2 62
2019-06-18 17:00:00 19.2 8 Sur 44 Sudeste 0 916.4 -0.5 57
2019-06-18 16:00:00 19.8 17 Sudeste 38 Sudeste 0 916.2 -0.9 49
2019-06-18 15:00:00 18 14 Sudeste 32 Sudoeste 0 916.4 -0.1 58
2019-06-18 14:00:00 17.4 9 Sudoeste 25 Sudeste 0 916.9 0.5 58
2019-06-18 13:00:00 15.8 10 Sudeste 32 Sur 0 917.1 0.6 68
2019-06-18 12:00:00 20.2 13 Sudoeste 38 Sur 0 916.5 0.4 52
2019-06-18 11:00:00 16.2 7 Sudeste 27 Sudeste 0 916.4 0.5 64
2019-06-18 10:00:00 14 4 Nordeste 16 Nordeste 0 916.5 0.6 63
2019-06-18 09:00:00 13.4 4 Nordeste 18 Norte 0 916.1 0.2 57
2019-06-18 08:00:00 13.7 3 Este 10 Sudeste 0 915.9 -0.1 56
2019-06-18 07:00:00 12.2 3 Sudoeste 12 Este 0 915.9 -0.7 58
2019-06-18 06:00:00 13.2 5 Nordeste 9 Norte 0 915.9 -1.2 52
2019-06-18 05:00:00 13.9 4 Este 10 Sudeste 0 916 -1.7 51
2019-06-18 04:00:00 14.2 3 Este 11 Sudoeste 0 916.6 -1.6 50
2019-06-18 03:00:00 13.4 4 Noroeste 9 Noroeste 0 917.1 -1.4 53
2019-06-18 02:00:00 14.5 2 Sur 9 Sudoeste 0 917.7 -0.9 48
2019-06-18 01:00:00 15.4 5 Sudoeste 10 Sudoeste 0 918.2 -0.4 46
2019-06-18 00:00:00 17.1 7 Este 26 Este 0 918.5 -0.3 37
2019-06-17 23:00:00 17.5 8 Nordeste 28 Nordeste 0 918.6 -0.8 36
2019-06-17 22:00:00 17.7 7 Este 19 Nordeste 0 918.6 -0.9 31
2019-06-17 21:00:00 19.5 7 Nordeste 13 Noroeste 0 918.8 -0.7 31
2019-06-17 20:00:00 20.4 4 Oeste 24 Sudoeste 0 919.4 -0.4 26
2019-06-17 19:00:00 20.9 12 Sudoeste 32 Sudoeste 0 919.5 -0.6 15
2019-06-17 18:00:00 21.4 5 Sudeste 18 Noroeste 0 919.5 -0.6 34
2019-06-17 17:00:00 21.5 8 Oeste 22 Oeste 0 919.8 -0.4 45
2019-06-17 16:00:00 22.2 4 Oeste 16 Sur 0 920.1 0.4 28
2019-06-17 15:00:00 23 6 Sudoeste 18 Oeste 0 920.1 0.3 26
2019-06-17 14:00:00 23.4 5 Sur 34 Sudeste 0 920.2 0.2 24
2019-06-17 13:00:00 23.9 14 Sudeste 39 Sur 0 919.7 -0.9 18
2019-06-17 12:00:00 23.1 15 Sudeste 36 Sudeste 0 919.8 -0.9 24
2019-06-17 11:00:00 19.7 10 Sudeste 19 Este 0 920 -0.9 52
2019-06-17 10:00:00 17.1 4 Nordeste 12 Este 0 920.6 -0.3 71
2019-06-17 09:00:00 14.6 4 Este 10 Este 0 920.7 -0.3 80
2019-06-17 08:00:00 10.7 2 Noroeste 10 Noroeste 0 920.9 -0.4 94
2019-06-17 07:00:00 8.3 5 Noroeste 8 Noroeste 0 920.9 -0.8 93
2019-06-17 06:00:00 8.8 6 Noroeste 10 Noroeste 0 921 -0.8 91
2019-06-17 05:00:00 9.8 5 Noroeste 12 Noroeste 0 921.3 -0.8 91
2019-06-17 04:00:00 10.4 6 Noroeste 12 Noroeste 0 921.7 -0.6 91
2019-06-17 03:00:00 11.2 5 Noroeste 16 Oeste 0 921.8 -1 87
2019-06-17 02:00:00 12.1 7 Oeste 15 Noroeste 0 922.1 -0.7 87
2019-06-17 01:00:00 12.5 6 Noroeste 17 Oeste 0 922.3 0.1 85
2019-06-17 00:00:00 13.8 8 Oeste 22 Oeste 0 922.8 1.2 82
2019-06-16 23:00:00 15 10 Oeste 23 Oeste 0 922.8 1.3 77
2019-06-16 22:00:00 17.2 11 Oeste 24 Oeste 0 922.2 0.8 67
2019-06-16 21:00:00 20.1 8 Oeste 23 Oeste 0 921.6 0 47
2019-06-16 20:00:00 21.8 11 Oeste 25 Oeste 0 921.5 -0.2 41
2019-06-16 19:00:00 24.4 9 Oeste 25 Oeste 0 921.4 -0.5 33
2019-06-16 18:00:00 23 8 Noroeste 21 Oeste 0 921.6 -0.5 35
2019-06-16 17:00:00 24.2 9 Noroeste 24 Oeste 0 921.7 -0.9 34
2019-06-16 16:00:00 24.8 10 Noroeste 21 Oeste 0 921.9 -1.1 35
2019-06-16 15:00:00 23.7 8 Noroeste 21 Oeste 0 922.1 -1.3 38
2019-06-16 14:00:00 22.8 11 Oeste 24 Oeste 0 922.6 -1.2 41
2019-06-16 13:00:00 21.1 5 Este 16 Este 0 923 -0.9 42
2019-06-16 12:00:00 18.8 6 Este 18 Este 0 923.4 -0.5 50
2019-06-16 11:00:00 15.6 10 Nordeste 18 Este 0 923.8 0.3 58
2019-06-16 10:00:00 13.9 7 Nordeste 12 Nordeste 0 923.9 0.4 66
2019-06-16 09:00:00 11.1 6 Noroeste 11 Noroeste 0 923.9 0.3 76
2019-06-16 08:00:00 6.3 5 Noroeste 10 Noroeste 0 923.5 -0.3 91
2019-06-16 07:00:00 4.4 8 Noroeste 12 Noroeste 0 923.5 -0.6 91
2019-06-16 06:00:00 4.7 8 Noroeste 12 Noroeste 0 923.6 -0.9 90
2019-06-16 05:00:00 5.4 8 Noroeste 16 Noroeste 0 923.8 -1.1 91
2019-06-16 04:00:00 6.1 7 Noroeste 14 Noroeste 0 924.1 -1.2 90
2019-06-16 03:00:00 6.7 7 Noroeste 13 Noroeste 0 924.5 -0.9 89
2019-06-16 02:00:00 8 6 Oeste 16 Oeste 0 924.9 -0.3 85
2019-06-16 01:00:00 9.3 7 Oeste 17 Oeste 0 925.3 0.8 82
2019-06-16 00:00:00 9.8 9 Oeste 16 Oeste 0 925.4 1 82
2019-06-15 23:00:00 10.9 9 Oeste 17 Sudoeste 0 925.2 0.8 76
2019-06-15 22:00:00 12.7 7 Oeste 21 Noroeste 0 924.5 0.3 67
2019-06-15 21:00:00 14.3 8 Noroeste 30 Noroeste 0 924.4 -0.1 57
2019-06-15 20:00:00 16 11 Oeste 25 Noroeste 0 924.4 -0.3 51
2019-06-15 19:00:00 19 9 Noroeste 26 Oeste 0 924.2 -0.5 41
2019-06-15 18:00:00 18.6 10 Noroeste 27 Noroeste 0 924.5 -0.4 44
2019-06-15 17:00:00 18 10 Noroeste 28 Oeste 0 924.7 -0.3 44
2019-06-15 16:00:00 17.9 11 Noroeste 24 Oeste 0 924.7 -0.3 43
2019-06-15 15:00:00 17.9 5 Norte 26 Noroeste 0 924.9 0.1 44
2019-06-15 14:00:00 16.7 7 Noroeste 19 Noroeste 0 925 0.3 45
2019-06-15 13:00:00 14.7 7 Noroeste 18 Oeste 0 925 0.5 52
2019-06-15 12:00:00 13.4 6 Norte 15 Este 0 924.8 0.7 62
2019-06-15 11:00:00 11.7 4 Este 10 Este 0 924.7 1.1 72
2019-06-15 10:00:00 11.4 5 Noroeste 18 Sudoeste 0 924.5 1.5 75
2019-06-15 09:00:00 10 6 Oeste 18 Sudoeste 0 924.1 1.3 81
2019-06-15 08:00:00 9.2 5 Oeste 10 Oeste 0 923.6 1 84
2019-06-15 07:00:00 8.7 4 Norte 6 Noroeste 0 923 0.4 84
2019-06-15 06:00:00 9 3 Oeste 11 Oeste 0 922.8 0 85
2019-06-15 05:00:00 8.8 6 Noroeste 16 Sudoeste 0 922.6 -0.2 85
2019-06-15 04:00:00 7.9 9 Oeste 21 Oeste 0 922.6 -0.1 89
2019-06-15 03:00:00 7.5 5 Noroeste 18 Oeste 0 922.8 0.4 88
2019-06-15 02:00:00 7.4 7 Noroeste 15 Oeste 0 922.8 1.1 85
2019-06-15 01:00:00 8.9 9 Oeste 21 Oeste 0 922.7 1.9 80
2019-06-15 00:00:00 9.6 12 Sudoeste 26 Sudoeste 0 922.4 2.1 78
2019-06-14 23:00:00 9.9 12 Oeste 29 Sudoeste 0 921.7 1.9 76
2019-06-14 22:00:00 10.5 9 Oeste 28 Oeste 0 920.8 1.8 70
2019-06-14 21:00:00 12.5 13 Oeste 28 Oeste 0 920.3 1.5 62
2019-06-14 20:00:00 13.6 12 Oeste 35 Oeste 0 919.8 1.4 59
2019-06-14 19:00:00 13.6 17 Oeste 36 Oeste 0 919 0.8 59
2019-06-14 18:00:00 14.5 15 Oeste 31 Oeste 0 918.8 0.8 52
2019-06-14 17:00:00 17.2 15 Oeste 36 Oeste 0 918.4 0.3 44
2019-06-14 16:00:00 17.5 13 Oeste 31 Oeste 0 918.2 0.3 45
2019-06-14 15:00:00 18.1 14 Oeste 27 Noroeste 0 918 0.4 43
2019-06-14 14:00:00 15.9 10 Noroeste 24 Oeste 0 918.1 0.4 50
2019-06-14 13:00:00 15.3 11 Oeste 21 Oeste 0 917.9 0.4 53
2019-06-14 12:00:00 15.1 8 Noroeste 17 Noroeste 0 917.6 0.2 57
2019-06-14 11:00:00 13.5 6 Noroeste 14 Oeste 0 917.7 0.8 65
2019-06-14 10:00:00 11.9 5 Norte 12 Noroeste 0 917.5 0.7 72
2019-06-14 09:00:00 8.5 4 Noroeste 10 Noroeste 0 917.4 0.7 84
2019-06-14 08:00:00 4.7 7 Noroeste 12 Noroeste 0 916.9 0.4 92
2019-06-14 07:00:00 3.5 8 Noroeste 15 Noroeste 0 916.8 0.1 91
2019-06-14 06:00:00 4 6 Noroeste 14 Noroeste 0 916.7 -0.2 90
2019-06-14 05:00:00 4.7 4 Oeste 14 Noroeste 0 916.5 -0.6 90
2019-06-14 04:00:00 5.6 10 Oeste 16 Oeste 0 916.7 -0.9 92
2019-06-14 03:00:00 6.1 6 Oeste 17 Noroeste 0 916.9 -0.7 89
2019-06-14 02:00:00 7.4 7 Oeste 20 Oeste 0 917.1 -0.3 87
2019-06-14 01:00:00 8.4 10 Oeste 20 Sudoeste 0 917.6 0.7 86
2019-06-14 00:00:00 8.4 6 Oeste 14 Oeste 0 917.6 1.1 82
2019-06-13 23:00:00 9.2 7 Sudoeste 15 Oeste 0 917.4 1.2 77
2019-06-13 22:00:00 11 3 Sudoeste 25 Oeste 0 916.9 0.9 63
2019-06-13 21:00:00 12.3 6 Noroeste 24 Oeste 0 916.5 0.7 55
2019-06-13 20:00:00 14.1 11 Noroeste 28 Oeste 0 916.2 0.3 49
2019-06-13 19:00:00 16.6 11 Oeste 30 Noroeste 0 916 0.2 42
2019-06-13 18:00:00 16.1 11 Oeste 32 Oeste 0 915.8 0 43
2019-06-13 17:00:00 15.2 13 Oeste 30 Noroeste 0 915.9 -0.1 43
2019-06-13 16:00:00 16.5 13 Oeste 31 Oeste 0 915.8 -0.2 43
2019-06-13 15:00:00 16.7 12 Noroeste 34 Oeste 0 915.8 -0.2 42
2019-06-13 14:00:00 15.8 10 Noroeste 27 Noroeste 0 916 0.1 44
2019-06-13 13:00:00 13 10 Oeste 23 Oeste 0 916 0 62
2019-06-13 12:00:00 13.8 6 Noroeste 17 Oeste 0 916 0.1 60
2019-06-13 11:00:00 10.5 5 Norte 12 Noroeste 0 915.9 0.3 78
2019-06-13 10:00:00 7.9 4 Noroeste 12 Oeste 0 916 0.3 88
2019-06-13 09:00:00 6.7 6 Oeste 12 Noroeste 0 915.9 0.5 91
2019-06-13 08:00:00 5.1 5 Noroeste 11 Oeste 0 915.6 0 93
2019-06-13 07:00:00 3.5 5 Oeste 13 Noroeste 0 915.7 -0.1 92
2019-06-13 06:00:00 3.6 3 Oeste 17 Noroeste 0 915.4 -0.6 90
2019-06-13 05:00:00 3.9 4 Oeste 13 Oeste 0 915.6 -0.9 90
2019-06-13 04:00:00 4.5 5 Noroeste 13 Noroeste 0 915.8 -1.1 91
2019-06-13 03:00:00 5.5 6 Noroeste 12 Oeste 0 916 -1 89
2019-06-13 02:00:00 6.4 6 Oeste 14 Oeste 0 916.5 -0.8 88
2019-06-13 01:00:00 7.1 4 Oeste 17 Oeste 0 916.9 -0.1 85
2019-06-13 00:00:00 7.9 8 Oeste 21 Sudoeste 0 917 0.2 84
2019-06-12 23:00:00 8.7 7 Sudoeste 16 Oeste 0 917.3 0.5 78
2019-06-12 22:00:00 10.2 5 Oeste 26 Oeste 0 917 0 65
2019-06-12 21:00:00 12.1 12 Oeste 28 Noroeste 0 916.8 -0.6 57
2019-06-12 20:00:00 13.4 11 Oeste 30 Oeste 0 916.8 -1 48
2019-06-12 19:00:00 15.4 12 Noroeste 27 Noroeste 0 917 -1.1 40
2019-06-12 18:00:00 16.1 11 Noroeste 28 Noroeste 0 917.4 -1.1 41
2019-06-12 17:00:00 16.7 12 Noroeste 36 Oeste 0 917.8 -1.2 38
2019-06-12 16:00:00 16.2 12 Oeste 28 Noroeste 0 918.1 -1.6 41
2019-06-12 15:00:00 15.7 14 Oeste 29 Oeste 0 918.5 -1.4 37
2019-06-12 14:00:00 15.2 10 Oeste 30 Oeste 0 919 -0.8 42
2019-06-12 13:00:00 14.6 8 Norte 23 Oeste 0 919.7 -0.3 45
2019-06-12 12:00:00 13.5 8 Noroeste 22 Noroeste 0 919.9 -0.3 47
2019-06-12 11:00:00 11.9 9 Norte 19 Norte 0 919.8 -0.5 54
2019-06-12 10:00:00 11 6 Norte 15 Nordeste 0 920 -0.2 64
2019-06-12 09:00:00 7.8 4 Oeste 10 Oeste 0 920.2 0 83
2019-06-12 08:00:00 5.5 5 Oeste 13 Oeste 0 920.3 -0.2 89
2019-06-12 07:00:00 4.8 4 Noroeste 10 Oeste 0 920.2 -0.9 90
2019-06-12 06:00:00 3.6 5 Noroeste 12 Oeste 0 920.2 -1.2 91
2019-06-12 05:00:00 4 6 Oeste 14 Oeste 0 920.5 -1.3 90
2019-06-12 04:00:00 4.7 4 Sudoeste 13 Sudoeste 0 921.1 -1.2 92
2019-06-12 03:00:00 4.8 6 Oeste 12 Oeste 0 921.4 -0.9 87
2019-06-12 02:00:00 5.7 5 Oeste 9 Oeste 0 921.8 -0.6 88
2019-06-12 01:00:00 5.8 6 Oeste 9 Sudoeste 0 922.3 0.3 85
2019-06-12 00:00:00 7.2 4 Oeste 12 Oeste 0 922.3 0.2 77
2019-06-11 23:00:00 8.2 4 Noroeste 18 Noroeste 0 922.4 0.3 74
2019-06-11 22:00:00 9.5 6 Noroeste 27 Noroeste 0 922 -0.2 66
2019-06-11 21:00:00 11.1 6 Noroeste 28 Noroeste 0 922.1 0 59
2019-06-11 20:00:00 12.5 10 Noroeste 29 Noroeste 0 922.1 -0.1 47
2019-06-11 19:00:00 12.9 9 Noroeste 31 Noroeste 0 922.2 0 53
2019-06-11 18:00:00 15.7 10 Norte 30 Norte 0 922.1 -0.5 43
2019-06-11 17:00:00 15.2 8 Noroeste 32 Noroeste 0 922.2 -0.4 43
2019-06-11 16:00:00 13.8 12 Norte 30 Este 0 922.2 -0.3 49
2019-06-11 15:00:00 14.4 14 Noroeste 37 Noroeste 0 922.6 0.2 49
2019-06-11 14:00:00 14.5 12 Noroeste 29 Noroeste 0 922.6 0.5 45
2019-06-11 13:00:00 13.8 8 Norte 20 Norte 0 922.5 0.6 46
2019-06-11 12:00:00 11.3 9 Noroeste 22 Noroeste 0 922.4 0.9 58
2019-06-11 11:00:00 9.8 10 Noroeste 22 Noroeste 0 922.1 0.9 66
2019-06-11 10:00:00 9.5 10 Noroeste 22 Noroeste 0 921.9 1.1 67
2019-06-11 09:00:00 9.2 8 Noroeste 17 Noroeste 0 921.5 0.7 76
2019-06-11 08:00:00 8.1 6 Noroeste 17 Noroeste 0 921.2 0.3 88
2019-06-11 07:00:00 7.2 4 Oeste 14 Oeste 0 920.8 -0.4 84
2019-06-11 06:00:00 7.1 5 Oeste 16 Oeste 0 920.8 -0.5 85
2019-06-11 05:00:00 7.5 6 Oeste 17 Oeste 0 920.9 -0.9 84
2019-06-11 04:00:00 7.9 7 Oeste 18 Oeste 0 921.2 -0.6 84
2019-06-11 03:00:00 8.1 9 Oeste 19 Oeste 0 921.3 -0.7 83
2019-06-11 02:00:00 8.5 8 Oeste 24 Oeste 0 921.8 -0.1 81
2019-06-11 01:00:00 8.9 10 Oeste 26 Oeste 0 921.8 0.4 84
2019-06-11 00:00:00 9.6 9 Oeste 24 Noroeste 0 922 0.4 80
2019-06-10 23:00:00 10.8 6 Oeste 24 Oeste 0 921.9 0.4 71
2019-06-10 22:00:00 12.1 9 Oeste 24 Noroeste 0 921.4 -0.3 64
2019-06-10 21:00:00 13.3 6 Noroeste 19 Norte 0 921.6 -0.5 58
2019-06-10 20:00:00 14.5 9 Noroeste 24 Oeste 0 921.5 -0.8 54
2019-06-10 19:00:00 15.2 9 Oeste 31 Oeste 0 921.7 -1 52
2019-06-10 18:00:00 16.7 12 Noroeste 31 Oeste 0 922.1 -1 44
2019-06-10 17:00:00 16.4 10 Noroeste 31 Noroeste 0 922.3 -1.3 45
2019-06-10 16:00:00 16.8 11 Noroeste 30 Noroeste 0 922.7 -1.2 44
2019-06-10 15:00:00 16.7 11 Noroeste 26 Oeste 0 923.1 -0.9 45
2019-06-10 14:00:00 16 10 Noroeste 23 Norte 0 923.6 -0.7 50
2019-06-10 13:00:00 15.3 12 Oeste 24 Oeste 0 923.9 -0.4 57
2019-06-10 12:00:00 13.9 4 Nordeste 11 Nordeste 0 924 -0.2 63
2019-06-10 11:00:00 12.2 5 Norte 14 Noroeste 0 924.3 0.2 71
2019-06-10 10:00:00 9.5 3 Norte 8 Noroeste 0 924.3 0.4 84
2019-06-10 09:00:00 8.8 2 Noroeste 12 Oeste 0 924.2 0.6 88
2019-06-10 08:00:00 7.2 6 Oeste 16 Noroeste 0 924.1 0.3 95
2019-06-10 07:00:00 4.6 6 Noroeste 12 Noroeste 0 923.9 -0.1 91
2019-06-10 06:00:00 5.1 5 Noroeste 19 Oeste 0 923.6 -0.8 91
2019-06-10 05:00:00 5.9 9 Oeste 21 Noroeste 0 923.8 -1.1 92
2019-06-10 04:00:00 6 9 Noroeste 18 Oeste 0 924 -1.1 93
2019-06-10 03:00:00 6.4 7 Noroeste 13 Oeste 0 924.4 -0.9 91
2019-06-10 02:00:00 7.1 6 Noroeste 12 Oeste 0 924.9 0.1 88
2019-06-10 01:00:00 8.5 5 Oeste 12 Oeste 0 925.1 1 85
2019-06-10 00:00:00 9.8 6 Oeste 12 Oeste 0 925.3 1.4 80
2019-06-09 23:00:00 10.6 5 Oeste 18 Oeste 0 924.8 1.2 78
2019-06-09 22:00:00 11.3 8 Oeste 19 Oeste 0 924.1 0.9 74
2019-06-09 21:00:00 12.5 5 Oeste 27 Oeste 0 923.9 1 69
2019-06-09 20:00:00 13.5 11 Noroeste 30 Noroeste 0 923.6 0.7 65
2019-06-09 19:00:00 16.7 12 Noroeste 31 Noroeste 0 923.2 0.3 53
2019-06-09 18:00:00 17.9 14 Oeste 32 Oeste 0 922.9 -0.1 48
2019-06-09 17:00:00 15.9 11 Noroeste 27 Oeste 0 922.9 -0.2 50
2019-06-09 16:00:00 17.8 10 Oeste 31 Noroeste 0 922.9 -0.4 43
2019-06-09 15:00:00 16.9 14 Oeste 34 Oeste 0 923 -0.3 45
2019-06-09 14:00:00 16.8 13 Noroeste 29 Oeste 0 923.1 -0.2 49
2019-06-09 13:00:00 15.5 11 Noroeste 28 Oeste 0 923.3 0.1 52
2019-06-09 12:00:00 14.2 9 Noroeste 22 Oeste 0 923.3 0.4 63
2019-06-09 11:00:00 11.1 5 Noroeste 17 Noroeste 0 923.3 0.7 81
2019-06-09 10:00:00 8.7 6 Noroeste 15 Oeste 0 923.2 0.8 89
2019-06-09 09:00:00 7.6 6 Oeste 11 Oeste 0 922.9 0.5 93
2019-06-09 08:00:00 5.8 3 Oeste 6 Noroeste 0 922.6 0.1 93
2019-06-09 07:00:00 5.4 3 Sur 9 Oeste 0 922.4 0 94
2019-06-09 06:00:00 5 4 Oeste 19 Oeste 0 922.4 -0.3 91
2019-06-09 05:00:00 5.9 8 Noroeste 24 Oeste 0 922.5 -0.5 94
2019-06-09 04:00:00 5.7 8 Noroeste 17 Oeste 0 922.4 -1 91
2019-06-09 03:00:00 6.2 8 Noroeste 18 Oeste 0 922.7 -1.1 91
2019-06-09 02:00:00 7.1 7 Noroeste 18 Oeste 0 923 -1 91
2019-06-09 01:00:00 7.8 8 Noroeste 15 Oeste 0 923.4 -0.4 89
2019-06-09 00:00:00 9 9 Oeste 21 Oeste 0 923.8 0.4 87
2019-06-08 23:00:00 9.8 10 Oeste 18 Oeste 0 924 0.8 84
2019-06-08 22:00:00 10.7 7 Oeste 22 Noroeste 0 923.8 0.7 77
2019-06-08 21:00:00 12.5 10 Noroeste 24 Oeste 0 923.4 -0.2 69
2019-06-08 20:00:00 14.4 9 Noroeste 20 Oeste 0 923.2 -0.8 58
2019-06-08 19:00:00 14.9 6 Noroeste 18 Oeste 0 923.1 -1 58
2019-06-08 18:00:00 15.4 6 Noroeste 25 Oeste 0 923.6 -0.6 53
2019-06-08 17:00:00 15.6 10 Noroeste 26 Noroeste 0 924 -0.5 52
2019-06-08 16:00:00 16.2 13 Noroeste 27 Oeste 0 924.1 -0.9 49
2019-06-08 15:00:00 17.4 9 Oeste 23 Oeste 0 924.2 -1.2 55
2019-06-08 14:00:00 15.8 4 Nordeste 15 Este 0 924.5 -1.2 55
2019-06-08 13:00:00 14.6 6 Nordeste 18 Sudeste 0 925 -0.9 55
2019-06-08 12:00:00 11.8 9 Este 22 Este 0 925.4 -0.6 67
2019-06-08 11:00:00 10.8 8 Este 18 Este 0 925.7 -0.3 73
2019-06-08 10:00:00 8.6 4 Este 12 Noroeste 0 925.9 0 81
2019-06-08 09:00:00 6.4 4 Nordeste 10 Nordeste 0 926 -0.1 88
2019-06-08 08:00:00 3.6 2 Norte 9 Oeste 0 926 0 93
2019-06-08 07:00:00 2.4 6 Noroeste 12 Oeste 0 925.9 -0.2 92
2019-06-08 06:00:00 2.3 6 Noroeste 12 Noroeste 0 926.1 -0.2 92
2019-06-08 05:00:00 2.5 6 Noroeste 12 Noroeste 0 926 -0.5 92
2019-06-08 04:00:00 2.8 8 Noroeste 14 Oeste 0 926.1 -0.7 91
2019-06-08 03:00:00 3.1 6 Noroeste 12 Noroeste 0 926.3 -0.4 88
2019-06-08 02:00:00 4.3 6 Noroeste 17 Oeste 0 926.5 0.2 85
2019-06-08 01:00:00 5.2 8 Oeste 17 Oeste 0 926.8 1.4 84
2019-06-08 00:00:00 6.2 7 Oeste 21 Sudoeste 0 926.7 1.8 80
2019-06-07 23:00:00 6.7 6 Oeste 13 Oeste 0 926.3 1.8 80
2019-06-07 22:00:00 8.5 8 Oeste 22 Oeste 0 925.4 1.1 73
2019-06-07 21:00:00 10.3 9 Oeste 22 Oeste 0 924.9 1 66
2019-06-07 20:00:00 11.6 8 Oeste 23 Oeste 0 924.5 0.9 63
2019-06-07 19:00:00 11.6 9 Oeste 30 Oeste 0 924.3 1.3 68
2019-06-07 18:00:00 12.5 7 Oeste 31 Oeste 0.6 923.9 0.9 68
2019-06-07 17:00:00 12 14 Oeste 35 Sudoeste 0 923.6 1.6 66
2019-06-07 16:00:00 12 16 Oeste 32 Oeste 0 923 1.4 66
2019-06-07 15:00:00 10.4 15 Oeste 36 Oeste 0.2 923 2 77
2019-06-07 14:00:00 13.8 15 Oeste 34 Oeste 0 922 1.6 53
2019-06-07 13:00:00 13.1 10 Oeste 28 Oeste 0 921.6 1.9 55
2019-06-07 12:00:00 11.8 11 Oeste 32 Oeste 0 921 2.2 60
2019-06-07 11:00:00 10.8 15 Oeste 30 Oeste 0 920.4 2.3 69
2019-06-07 10:00:00 7.6 12 Oeste 29 Oeste 0 919.7 2.5 79
2019-06-07 09:00:00 8.3 11 Oeste 24 Oeste 0 918.8 2.6 82
2019-06-07 08:00:00 5.9 11 Oeste 26 Oeste 0.4 918.1 2.6 90
2019-06-07 07:00:00 5 11 Oeste 27 Oeste 0.2 917.2 2.7 91
2019-06-07 06:00:00 5.2 10 Oeste 33 Oeste 2 916.2 2.3 92
2019-06-07 05:00:00 5.7 13 Oeste 31 Oeste 0 915.5 2.4 89
2019-06-07 04:00:00 5.8 13 Oeste 36 Oeste 0.2 914.5 2 90
2019-06-07 03:00:00 6.1 16 Oeste 39 Sudoeste 0 913.9 1.9 88
2019-06-07 02:00:00 6.2 18 Oeste 41 Sudoeste 0 913.1 1.8 86
2019-06-07 01:00:00 6.4 18 Oeste 36 Sudoeste 0.2 912.5 1.9 88
2019-06-07 00:00:00 6.8 19 Oeste 44 Oeste 0 912 2.4 84
2019-06-06 23:00:00 7.2 23 Oeste 50 Oeste 0 911.3 2.4 83
2019-06-06 22:00:00 7.7 19 Oeste 51 Sudoeste 0 910.6 2.2 85
2019-06-06 21:00:00 7.9 21 Oeste 59 Sudoeste 0 909.6 1.6 84
2019-06-06 20:00:00 9.2 24 Oeste 48 Sudoeste 1.2 908.9 1 84
2019-06-06 19:00:00 10 18 Oeste 52 Sudoeste 4 908.4 -0.1 87
2019-06-06 18:00:00 11.7 18 Sudoeste 55 Sudoeste 1.2 908 -0.9 80
2019-06-06 17:00:00 11.2 14 Sur 43 Sur 3 907.9 -2.7 81
2019-06-06 16:00:00 13.2 11 Sur 49 Oeste 0.2 908.5 -2.5 70
2019-06-06 15:00:00 14.5 21 Sur 61 Sudoeste 0 908.9 -3.6 55
2019-06-06 14:00:00 12 14 Sur 63 Sur 0 910.6 -2.5 64
2019-06-06 13:00:00 12.3 21 Sudeste 55 Sudeste 0 911 -2.8 64
2019-06-06 12:00:00 10.3 10 Este 36 Sur 0 912.5 -2.3 67
2019-06-06 11:00:00 10.6 9 Este 30 Sudeste 0 913.1 -2.7 67
2019-06-06 10:00:00 9.4 10 Este 21 Nordeste 0 913.8 -2.6 76
2019-06-06 09:00:00 7.3 5 Nordeste 13 Nordeste 0 914.8 -2 85
2019-06-06 08:00:00 6.2 4 Este 13 Nordeste 0 915.8 -1.7 88
2019-06-06 07:00:00 5.7 4 Este 9 Este 0 916.4 -1.7 88
2019-06-06 06:00:00 5.6 5 Norte 11 Nordeste 0 916.8 -1.9 88
2019-06-06 05:00:00 5.6 3 Oeste 9 Noroeste 0 917.5 -1.4 89
2019-06-06 04:00:00 5.8 0 Calma 4 Este 0 918.1 -1.2 85
2019-06-06 03:00:00 6.6 2 Este 7 Sudeste 0 918.7 -0.8 84
2019-06-06 02:00:00 6.4 4 Oeste 16 Noroeste 0 918.9 -0.6 86
2019-06-06 01:00:00 5.6 8 Noroeste 18 Oeste 0 919.3 0.1 88
2019-06-06 00:00:00 6.3 8 Oeste 17 Sudoeste 0 919.5 0.4 84
2019-06-05 23:00:00 7.7 6 Oeste 19 Oeste 0 919.5 0.8 80
2019-06-05 22:00:00 8.9 7 Oeste 19 Oeste 0 919.2 0.6 77
2019-06-05 21:00:00 10 9 Oeste 32 Oeste 0 919.1 0.3 68
2019-06-05 20:00:00 11.5 12 Oeste 33 Sudoeste 0 918.7 -0.4 61
2019-06-05 19:00:00 12.8 14 Oeste 34 Oeste 0.2 918.6 -0.4 55
2019-06-05 18:00:00 13.2 12 Oeste 25 Oeste 0 918.8 -0.5 71
2019-06-05 17:00:00 11.4 12 Oeste 46 Oeste 1.8 919.1 -0.6 82
2019-06-05 16:00:00 13.4 12 Sudoeste 43 Oeste 0 919 -0.4 59
2019-06-05 15:00:00 11.5 10 Oeste 27 Oeste 0.2 919.3 0.2 75
2019-06-05 14:00:00 9.7 14 Oeste 35 Oeste 1.2 919.7 0.7 81
2019-06-05 13:00:00 10.9 12 Noroeste 28 Noroeste 0 919.4 0.8 70
2019-06-05 12:00:00 10.8 9 Noroeste 25 Oeste 0.2 919.1 1 77
2019-06-05 11:00:00 8.6 9 Noroeste 26 Oeste 0.8 919 1.3 86
2019-06-05 10:00:00 9.3 12 Oeste 28 Oeste 0 918.6 1.3 87
2019-06-05 09:00:00 7.8 11 Oeste 24 Oeste 0 918.1 1 90
2019-06-05 08:00:00 7.2 7 Oeste 24 Oeste 0 917.7 0.7 91
2019-06-05 07:00:00 6.8 10 Oeste 28 Noroeste 0 917.3 0.3 90
2019-06-05 06:00:00 7.2 10 Oeste 25 Oeste 0.2 917.1 -0.1 90
2019-06-05 05:00:00 7.4 6 Oeste 21 Oeste 0.2 917 -0.5 91
2019-06-05 04:00:00 7.7 8 Oeste 21 Oeste 0.2 917 -0.3 91
2019-06-05 03:00:00 7.5 5 Oeste 32 Oeste 2 917.2 -0.1 91
2019-06-05 02:00:00 8.1 10 Noroeste 33 Oeste 0.6 917.5 0.2 87
2019-06-05 01:00:00 8.3 10 Oeste 26 Oeste 0 917.3 0.4 83
2019-06-05 00:00:00 9.1 13 Oeste 32 Oeste 0 917.3 0.6 81
2019-06-04 23:00:00 9.6 10 Oeste 27 Oeste 0.2 917.3 0.7 76
2019-06-04 22:00:00 10.2 12 Oeste 32 Oeste 0 916.9 0.5 70
2019-06-04 21:00:00 11.9 13 Oeste 38 Oeste 0 916.7 0.3 63
2019-06-04 20:00:00 14.4 11 Oeste 33 Oeste 0 916.6 0.1 56
2019-06-04 19:00:00 16.9 13 Oeste 39 Oeste 0 916.4 -0.1 43
2019-06-04 18:00:00 17.7 14 Oeste 38 Sudoeste 0 916.4 -0.5 43
2019-06-04 17:00:00 17.4 12 Oeste 36 Oeste 0 916.5 -0.5 46
2019-06-04 16:00:00 17.9 12 Oeste 32 Oeste 0 916.5 0 47
2019-06-04 15:00:00 16.2 10 Oeste 33 Sudoeste 0 916.9 0.4 56
2019-06-04 14:00:00 14.7 15 Oeste 37 Sudoeste 0 917 0.8 70
2019-06-04 13:00:00 14.9 18 Oeste 41 Sudoeste 0.4 916.5 0.6 77
2019-06-04 12:00:00 14.9 17 Oeste 31 Oeste 0 916.5 0.6 72
2019-06-04 11:00:00 14.2 10 Oeste 31 Oeste 0 916.2 0.2 77
2019-06-04 10:00:00 13.9 10 Oeste 23 Sudoeste 0 915.9 -0.1 79
2019-06-04 09:00:00 12.7 4 Sur 14 Oeste 0 915.9 -0.1 81
2019-06-04 08:00:00 11.4 4 Este 13 Sudeste 0 916 -0.4 79
2019-06-04 07:00:00 11.3 6 Norte 19 Sur 0 916 -0.8 77
2019-06-04 06:00:00 9.5 2 Norte 10 Oeste 0 916 -1.6 82
2019-06-04 05:00:00 10.9 5 Oeste 16 Oeste 0 916.4 -1.6 78
2019-06-04 04:00:00 11.2 9 Oeste 26 Oeste 0 916.8 -1.5 80
2019-06-04 03:00:00 11.3 10 Oeste 21 Oeste 0 917.6 -1.2 87
2019-06-04 02:00:00 12.5 7 Noroeste 15 Noroeste 0 918 -0.9 86
2019-06-04 01:00:00 12.9 5 Noroeste 23 Oeste 0 918.3 -0.6 84
2019-06-04 00:00:00 13.4 7 Oeste 14 Oeste 0 918.8 -0.2 83
2019-06-03 23:00:00 14.4 5 Noroeste 19 Oeste 0 918.9 -0.2 80
2019-06-03 22:00:00 15.4 9 Oeste 21 Oeste 0 918.9 -0.3 77
2019-06-03 21:00:00 17.4 7 Oeste 31 Sudoeste 0 919 -0.3 69
2019-06-03 20:00:00 19.2 13 Oeste 32 Sudoeste 0 919.1 -0.4 63
2019-06-03 19:00:00 22.1 13 Oeste 36 Oeste 0 919.2 -0.9 56
2019-06-03 18:00:00 24.2 13 Oeste 30 Oeste 0 919.3 -1.2 48
2019-06-03 17:00:00 23.3 12 Oeste 28 Oeste 0 919.5 -1.6 52
2019-06-03 16:00:00 22.8 12 Noroeste 27 Noroeste 0 920.1 -1.4 54
2019-06-03 15:00:00 23.6 10 Noroeste 25 Noroeste 0 920.5 -1.3 53
2019-06-03 14:00:00 21.7 9 Oeste 26 Oeste 0 921.1 -1 54
2019-06-03 13:00:00 21.9 5 Noroeste 16 Oeste 0 921.5 -0.7 51
2019-06-03 12:00:00 20.8 4 Noroeste 14 Noroeste 0 921.8 -0.2 56
2019-06-03 11:00:00 19.9 5 Sudeste 12 Sudeste 0 922.1 0.1 52
2019-06-03 10:00:00 18.3 3 Este 10 Este 0 922.2 0.5 51
2019-06-03 09:00:00 15.3 5 Sudeste 7 Sudeste 0 922 0.4 63
2019-06-03 08:00:00 14.3 3 Sudeste 9 Oeste 0 922 0.2 62
2019-06-03 07:00:00 13.8 6 Oeste 19 Oeste 0 921.7 -0.4 57
2019-06-03 06:00:00 13 8 Oeste 19 Oeste 0 921.6 -0.7 64
2019-06-03 05:00:00 13 6 Oeste 17 Oeste 0 921.8 -0.6 66
2019-06-03 04:00:00 13.3 7 Oeste 19 Oeste 0 922.1 -0.7 64
2019-06-03 03:00:00 14.2 8 Oeste 20 Oeste 0 922.3 -0.7 65
2019-06-03 02:00:00 15.3 8 Oeste 18 Oeste 0 922.4 -0.5 63
2019-06-03 01:00:00 15.9 5 Oeste 15 Oeste 0 922.8 0.4 65
2019-06-03 00:00:00 16.3 3 Oeste 13 Oeste 0 923 0.6 65
2019-06-02 23:00:00 17.2 6 Oeste 12 Oeste 0 922.9 0.5 60
2019-06-02 22:00:00 18.6 4 Oeste 12 Oeste 0 922.4 0 55
2019-06-02 21:00:00 20.8 4 Sudoeste 14 Oeste 0 922.4 -0.1 47
2019-06-02 20:00:00 22.3 7 Oeste 22 Oeste 0 922.4 0 36
2019-06-02 19:00:00 23.7 6 Noroeste 25 Oeste 0 922.4 -0.1 38
2019-06-02 18:00:00 23.7 11 Oeste 24 Oeste 0 922.5 -0.4 36
2019-06-02 17:00:00 25.3 11 Noroeste 27 Oeste 0 922.4 -0.9 32
2019-06-02 16:00:00 26.9 9 Oeste 31 Oeste 0 922.5 -1 28
2019-06-02 15:00:00 26.5 12 Oeste 35 Oeste 0 922.9 -0.7 27
2019-06-02 14:00:00 25.9 13 Oeste 32 Oeste 0 923.3 -0.2 27
2019-06-02 13:00:00 26.4 11 Oeste 28 Oeste 0 923.5 -0.1 26
2019-06-02 12:00:00 23.5 6 Este 15 Sudeste 0 923.6 0.4 34
2019-06-02 11:00:00 22.1 5 Sudeste 9 Sudeste 0 923.5 0.4 39
2019-06-02 10:00:00 19.1 4 Sudeste 11 Noroeste 0 923.6 0.7 43
2019-06-02 09:00:00 14.2 3 Oeste 17 Noroeste 0 923.2 0.2 53
2019-06-02 08:00:00 11.3 10 Noroeste 17 Noroeste 0 923.1 0 58
2019-06-02 07:00:00 10.6 10 Noroeste 17 Noroeste 0 922.9 -0.5 59
2019-06-02 06:00:00 11.2 8 Oeste 22 Noroeste 0 923 -0.9 54
2019-06-02 05:00:00 11.5 9 Noroeste 21 Oeste 0 923.1 -0.9 56
2019-06-02 04:00:00 12.4 13 Oeste 23 Oeste 0 923.4 -0.9 53
2019-06-02 03:00:00 12.2 9 Noroeste 17 Noroeste 0 923.9 -0.9 59
2019-06-02 02:00:00 13.3 10 Noroeste 20 Noroeste 0 924 -0.7 54
2019-06-02 01:00:00 14.5 9 Oeste 21 Oeste 0 924.3 0.2 50
2019-06-02 00:00:00 16.6 9 Oeste 18 Oeste 0 924.8 1.2 44
2019-06-01 23:00:00 17.4 8 Oeste 16 Oeste 0 924.7 1.3 45
2019-06-01 22:00:00 20.3 8 Oeste 13 Oeste 0 924.1 0.8 38
2019-06-01 21:00:00 23.7 5 Oeste 20 Oeste 0 923.6 0.4 30
2019-06-01 20:00:00 25.9 11 Oeste 24 Oeste 0 923.4 -0.1 23
2019-06-01 19:00:00 29.7 10 Oeste 33 Oeste 0 923.3 -0.5 21
2019-06-01 18:00:00 29.9 13 Oeste 31 Oeste 0 923.2 -0.9 22
2019-06-01 17:00:00 30.2 13 Oeste 32 Oeste 0 923.5 -1.1 23
2019-06-01 16:00:00 30.1 13 Oeste 32 Oeste 0 923.8 -1.2 25
2019-06-01 15:00:00 30.8 8 Oeste 27 Sudoeste 0 924.1 -0.9 24
2019-06-01 14:00:00 30.4 10 Oeste 27 Sudoeste 0 924.6 -0.6 23
2019-06-01 13:00:00 28.2 5 Norte 14 Nordeste 0 925 -0.3 35
2019-06-01 12:00:00 26.3 4 Este 14 Nordeste 0 925 -0.2 41
2019-06-01 11:00:00 23.9 5 Este 10 Nordeste 0 925.2 0.1 46
2019-06-01 10:00:00 21.7 5 Este 9 Este 0 925.3 0.4 55
2019-06-01 09:00:00 18.3 5 Noroeste 13 Noroeste 0 925.2 0.3 62
2019-06-01 08:00:00 14.9 6 Noroeste 12 Noroeste 0 925.1 0.1 73
2019-06-01 07:00:00 13 8 Noroeste 13 Noroeste 0 924.9 -0.2 77
2019-06-01 06:00:00 13.7 8 Noroeste 15 Noroeste 0 924.9 -0.4 75
2019-06-01 05:00:00 14.4 12 Noroeste 16 Noroeste 0 925 -0.7 73
2019-06-01 04:00:00 14.9 9 Noroeste 13 Noroeste 0 925.1 -0.8 72
2019-06-01 03:00:00 15.6 9 Noroeste 19 Oeste 0 925.3 -0.8 69
2019-06-01 02:00:00 17.7 8 Oeste 21 Oeste 0 925.7 -0.2 61
2019-06-01 01:00:00 18.3 9 Noroeste 23 Oeste 0 925.9 0.5 59
2019-06-01 00:00:00 20 9 Oeste 21 Oeste 0 926.1 1.2 53
2019-05-31 23:00:00 20.8 12 Oeste 22 Sudoeste 0 925.9 1 50
2019-05-31 22:00:00 22.7 10 Oeste 25 Oeste 0 925.4 0.3 42
2019-05-31 21:00:00 25 5 Oeste 16 Oeste 0 924.9 -0.5 32
2019-05-31 20:00:00 27.4 6 Noroeste 22 Noroeste 0 924.9 -0.9 26
2019-05-31 19:00:00 30.6 6 Noroeste 19 Noroeste 0 925.1 -1 24
2019-05-31 18:00:00 30.5 6 Oeste 17 Noroeste 0 925.4 -1.2 25
2019-05-31 17:00:00 29.3 7 Este 17 Este 0 925.8 -1.2 25
2019-05-31 16:00:00 29.1 4 Oeste 15 Este 0 926.1 -1.4 25
2019-05-31 15:00:00 28.8 7 Este 15 Este 0 926.6 -1 27
2019-05-31 14:00:00 28.2 6 Nordeste 15 Nordeste 0 927 -0.8 24
2019-05-31 13:00:00 27.2 5 Nordeste 13 Este 0 927.5 -0.4 34
2019-05-31 12:00:00 25.2 6 Nordeste 17 Sudeste 0 927.6 -0.4 40
2019-05-31 11:00:00 23.2 6 Este 12 Este 0 927.8 -0.1 45
2019-05-31 10:00:00 21.2 6 Este 12 Este 0 927.9 0.1 47
2019-05-31 09:00:00 19.3 0 Calma 9 Oeste 0 928 0.5 55
2019-05-31 08:00:00 14.8 4 Noroeste 11 Noroeste 0 927.9 0.3 71
2019-05-31 07:00:00 13.1 6 Norte 9 Noroeste 0 927.8 0 74
2019-05-31 06:00:00 14.3 3 Oeste 10 Norte 0 927.5 -0.4 69
2019-05-31 05:00:00 13.3 7 Norte 13 Norte 0 927.6 -0.6 76
2019-05-31 04:00:00 13.2 8 Noroeste 12 Noroeste 0 927.8 -0.4 77
2019-05-31 03:00:00 14.5 6 Noroeste 12 Noroeste 0 927.9 -0.4 72
2019-05-31 02:00:00 15.6 6 Noroeste 15 Noroeste 0 928.2 0.1 67
2019-05-31 01:00:00 17 9 Noroeste 19 Oeste 0 928.2 0.8 61
2019-05-31 00:00:00 18 9 Noroeste 21 Oeste 0 928.3 1.3 57
2019-05-30 23:00:00 18.8 8 Oeste 15 Oeste 0 928.1 1.1 54
2019-05-30 22:00:00 21.3 8 Oeste 18 Sudoeste 0 927.4 0 46
2019-05-30 21:00:00 23.9 7 Oeste 27 Norte 0 927 -0.6 38
2019-05-30 20:00:00 25.8 6 Noroeste 22 Noroeste 0 927 -1 33
2019-05-30 19:00:00 28.9 9 Noroeste 22 Noroeste 0 927.4 -0.9 27
2019-05-30 18:00:00 28.9 9 Noroeste 24 Noroeste 0 927.6 -1.2 29
2019-05-30 17:00:00 29 7 Norte 21 Noroeste 0 928 -1 30
2019-05-30 16:00:00 27.8 4 Norte 13 Nordeste 0 928.3 -1 28
2019-05-30 15:00:00 27.1 6 Este 15 Sudeste 0 928.8 -0.8 26
2019-05-30 14:00:00 26.3 4 Nordeste 14 Nordeste 0 929 -0.7 34
2019-05-30 13:00:00 24.5 5 Este 14 Sudeste 0 929.3 -0.5 34
2019-05-30 12:00:00 22.8 6 Este 12 Nordeste 0 929.6 -0.1 44
2019-05-30 11:00:00 20.1 8 Este 17 Sudeste 0 929.7 0.2 51
2019-05-30 10:00:00 17.8 7 Este 14 Sudeste 0 929.8 0.7 54
2019-05-30 09:00:00 16 4 Nordeste 9 Sudeste 0 929.7 0.7 61
2019-05-30 08:00:00 11.3 5 Noroeste 13 Noroeste 0 929.5 0.8 83
2019-05-30 07:00:00 9.8 8 Noroeste 11 Nordeste 0 929.1 0.5 85
2019-05-30 06:00:00 10.3 6 Noroeste 10 Noroeste 0 929 0.2 84
2019-05-30 05:00:00 10.9 5 Noroeste 13 Noroeste 0 928.7 -0.4 82
2019-05-30 04:00:00 11.4 8 Noroeste 12 Noroeste 0 928.6 -0.4 82
2019-05-30 03:00:00 11.9 6 Noroeste 12 Noroeste 0 928.8 -0.1 81
2019-05-30 02:00:00 12.8 7 Noroeste 13 Noroeste 0 929.1 0.6 78
2019-05-30 01:00:00 13.7 8 Noroeste 15 Noroeste 0 929 1.4 76
2019-05-30 00:00:00 15 9 Noroeste 19 Noroeste 0 928.9 1.5 72
2019-05-29 23:00:00 16.8 9 Oeste 27 Oeste 0 928.5 1.4 68
2019-05-29 22:00:00 18.7 9 Oeste 19 Sudoeste 0 927.6 0.5 59
2019-05-29 21:00:00 21.1 6 Sudoeste 21 Oeste 0 927.4 0.2 50
2019-05-29 20:00:00 23 9 Noroeste 22 Noroeste 0 927.1 -0.4 41
2019-05-29 19:00:00 26.2 8 Noroeste 21 Oeste 0 927.1 -0.5 27
2019-05-29 18:00:00 26.2 8 Noroeste 16 Noroeste 0 927.2 -0.8 30
2019-05-29 17:00:00 25.7 8 Oeste 19 Oeste 0 927.5 -0.7 33
2019-05-29 16:00:00 24.5 7 Oeste 17 Sudeste 0 927.6 -0.7 37
2019-05-29 15:00:00 23.3 5 Este 17 Este 0 928 -0.3 33
2019-05-29 14:00:00 22 10 Este 23 Este 0 928.2 -0.1 34
2019-05-29 13:00:00 20.6 7 Este 18 Nordeste 0 928.3 -0.1 38
2019-05-29 12:00:00 18.6 5 Nordeste 14 Este 0 928.3 -0.1 47
2019-05-29 11:00:00 16.1 5 Este 13 Sudeste 0 928.3 0.1 58
2019-05-29 10:00:00 13.8 6 Este 12 Este 0 928.4 0.7 60
2019-05-29 09:00:00 11.8 3 Norte 8 Noroeste 0 928.4 1 65
2019-05-29 08:00:00 7.3 3 Noroeste 7 Noroeste 0 928.2 1 85
2019-05-29 07:00:00 5.1 6 Noroeste 9 Noroeste 0 927.7 0.4 86
2019-05-29 06:00:00 6.5 4 Oeste 10 Noroeste 0 927.4 0.1 81
2019-05-29 05:00:00 6.2 6 Noroeste 11 Noroeste 0 927.2 0.1 85
2019-05-29 04:00:00 7 4 Noroeste 10 Norte 0 927.3 0.2 81
2019-05-29 03:00:00 7.3 6 Noroeste 11 Noroeste 0 927.3 0.4 81
2019-05-29 02:00:00 7.9 3 Oeste 8 Oeste 0 927.1 0.5 80
2019-05-29 01:00:00 8.9 6 Noroeste 16 Oeste 0 927.1 1.2 76
2019-05-29 00:00:00 9.8 7 Noroeste 17 Oeste 0 926.9 1.5 73
2019-05-28 23:00:00 11.3 8 Oeste 19 Oeste 0 926.6 1.6 66
2019-05-28 22:00:00 13 10 Oeste 22 Oeste 0 925.9 1.4 60
2019-05-28 21:00:00 14.9 10 Noroeste 27 Noroeste 0 925.4 0.9 53
2019-05-28 20:00:00 16.8 10 Noroeste 33 Norte 0 925 0.6 43
2019-05-28 19:00:00 19.3 13 Noroeste 37 Norte 0 924.5 -0.1 38
2019-05-28 18:00:00 20.5 12 Noroeste 39 Norte 0 924.5 -0.2 38
2019-05-28 17:00:00 20.4 14 Noroeste 33 Oeste 0 924.4 -0.5 40
2019-05-28 16:00:00 20.2 10 Noroeste 34 Noroeste 0 924.6 -0.4 41
2019-05-28 15:00:00 19.8 14 Oeste 29 Oeste 0 924.7 -0.1 45
2019-05-28 14:00:00 19 14 Oeste 32 Oeste 0 924.9 0.2 46
2019-05-28 13:00:00 18.4 13 Oeste 29 Oeste 0 925 0.4 47
2019-05-28 12:00:00 16.7 11 Oeste 25 Oeste 0 924.8 0.6 50
2019-05-28 11:00:00 14.6 6 Noroeste 13 Oeste 0 924.7 1.1 56
2019-05-28 10:00:00 12.1 6 Oeste 17 Oeste 0 924.6 1.4 61
2019-05-28 09:00:00 9.5 9 Oeste 21 Oeste 0 924.2 1.5 76
2019-05-28 08:00:00 6.7 9 Noroeste 22 Oeste 0 923.6 1.2 87
2019-05-28 07:00:00 5.3 9 Oeste 26 Oeste 0 923.2 0.8 91
2019-05-28 06:00:00 5.8 13 Oeste 28 Oeste 0 922.7 0 92
2019-05-28 05:00:00 6.8 8 Oeste 26 Oeste 0 922.4 -0.1 89
2019-05-28 04:00:00 7 15 Oeste 25 Oeste 0 922.4 -0.2 90
2019-05-28 03:00:00 7.5 12 Oeste 34 Oeste 0 922.7 -0.2 88
2019-05-28 02:00:00 7.9 14 Oeste 32 Oeste 0 922.5 0.1 88
2019-05-28 01:00:00 8.3 12 Oeste 34 Oeste 0 922.6 0.4 86
2019-05-28 00:00:00 9.3 14 Oeste 32 Oeste 0 922.9 0.9 81
2019-05-27 23:00:00 10.7 10 Oeste 28 Oeste 0 922.4 0.8 73
2019-05-27 22:00:00 12.5 12 Oeste 27 Oeste 0 922.2 1.2 66
2019-05-27 21:00:00 14.9 10 Oeste 28 Oeste 0 922 0.6 57
2019-05-27 20:00:00 16.6 14 Noroeste 39 Noroeste 0 921.6 0.4 56
2019-05-27 19:00:00 19.8 13 Noroeste 35 Norte 0 921 -0.6 49
2019-05-27 18:00:00 20.8 12 Noroeste 30 Oeste 0 921.4 -0.5 48
2019-05-27 17:00:00 21 12 Noroeste 32 Noroeste 0 921.2 -1.4 47
2019-05-27 16:00:00 21.1 12 Noroeste 34 Oeste 0 921.6 -1.1 52
2019-05-27 15:00:00 20.5 12 Noroeste 34 Oeste 0 921.9 -1 53
2019-05-27 14:00:00 19.9 14 Oeste 30 Oeste 0 922.6 -0.1 56
2019-05-27 13:00:00 19.7 12 Oeste 32 Oeste 0 922.7 0 58
2019-05-27 12:00:00 18.7 15 Oeste 30 Oeste 0 922.9 0.4 62
2019-05-27 11:00:00 17.1 10 Oeste 26 Oeste 0 922.7 0.2 64
2019-05-27 10:00:00 16.4 10 Oeste 21 Oeste 0 922.7 0.1 66
2019-05-27 09:00:00 13.7 6 Noroeste 14 Oeste 0 922.5 0 76
2019-05-27 08:00:00 10.6 5 Oeste 17 Oeste 0 922.5 -0.4 87
2019-05-27 07:00:00 9.5 8 Noroeste 16 Oeste 0 922.6 -0.6 88
2019-05-27 06:00:00 9.8 4 Oeste 16 Noroeste 0 922.5 -1.1 86
2019-05-27 05:00:00 9.8 8 Noroeste 19 Noroeste 0 922.9 -0.9 87
2019-05-27 04:00:00 9.9 6 Noroeste 19 Oeste 0 923.2 -0.9 87
2019-05-27 03:00:00 10.9 9 Oeste 28 Oeste 0 923.6 -1 86
2019-05-27 02:00:00 11.4 10 Noroeste 23 Oeste 0 923.8 -0.8 83
2019-05-27 01:00:00 12.6 12 Oeste 37 Noroeste 0 924.1 0.2 77
2019-05-27 00:00:00 13.6 12 Oeste 24 Oeste 0 924.6 0.7 73
2019-05-26 23:00:00 14.8 9 Sudoeste 27 Oeste 0 924.6 0.6 72
2019-05-26 22:00:00 16.6 9 Oeste 26 Oeste 0 923.9 -0.2 65
2019-05-26 21:00:00 18.2 9 Noroeste 29 Noroeste 0 923.9 -0.4 54
2019-05-26 20:00:00 19.9 10 Noroeste 32 Noroeste 0 924 -0.8 47
2019-05-26 19:00:00 23.1 12 Oeste 35 Oeste 0 924.1 -1.2 39
2019-05-26 18:00:00 23.7 13 Oeste 30 Noroeste 0 924.3 -1.1 40
2019-05-26 17:00:00 23.8 11 Oeste 31 Noroeste 0 924.8 -0.8 43
2019-05-26 16:00:00 22.7 14 Oeste 36 Oeste 0 925.3 -0.6 48
2019-05-26 15:00:00 22 13 Oeste 30 Oeste 0 925.4 -0.7 50
2019-05-26 14:00:00 22.6 10 Oeste 24 Oeste 0 925.6 -0.4 48
2019-05-26 13:00:00 22.1 9 Oeste 24 Oeste 0 925.9 -0.4 45
2019-05-26 12:00:00 20.3 13 Oeste 26 Oeste 0 926.1 -0.3 50
2019-05-26 11:00:00 18 5 Sudeste 9 Este 0 926 -0.4 66
2019-05-26 10:00:00 15.1 4 Este 8 Sudeste 0 926.3 0.2 68
2019-05-26 09:00:00 12.3 4 Este 10 Oeste 0 926.4 0.5 78
2019-05-26 08:00:00 9.4 6 Sudoeste 13 Oeste 0 926.4 0.3 82
2019-05-26 07:00:00 6.7 5 Noroeste 14 Oeste 0 926.1 -0.3 89
2019-05-26 06:00:00 7 6 Noroeste 11 Oeste 0 925.9 -0.7 88
2019-05-26 05:00:00 7.8 4 Oeste 21 Noroeste 0 926.1 -0.7 89
2019-05-26 04:00:00 8.1 10 Noroeste 21 Oeste 0 926.4 -0.6 89
2019-05-26 03:00:00 8.7 10 Noroeste 19 Noroeste 0 926.6 -0.6 88
2019-05-26 02:00:00 9.5 9 Noroeste 19 Oeste 0 926.8 -0.1 88
2019-05-26 01:00:00 10.2 11 Oeste 22 Oeste 0 927 0.6 84
2019-05-26 00:00:00 11.7 12 Oeste 31 Oeste 0 927.2 1.2 78
2019-05-25 23:00:00 12.8 9 Oeste 21 Oeste 0 926.9 1.6 73
2019-05-25 22:00:00 14.3 9 Oeste 34 Oeste 0 926.4 1 67
2019-05-25 21:00:00 16.3 12 Oeste 33 Oeste 0 926 0.6 59
2019-05-25 20:00:00 18.4 13 Oeste 33 Oeste 0 925.3 -0.2 53
2019-05-25 19:00:00 21.6 15 Oeste 33 Oeste 0 925.4 -0.2 45
2019-05-25 18:00:00 22 13 Oeste 35 Oeste 0 925.4 -0.5 44
2019-05-25 17:00:00 21.7 15 Oeste 35 Oeste 0 925.5 -0.7 44
2019-05-25 16:00:00 21.3 13 Oeste 32 Oeste 0 925.6 -0.9 43
2019-05-25 15:00:00 21.1 9 Noroeste 24 Oeste 0 925.9 -0.7 43
2019-05-25 14:00:00 20.6 9 Oeste 21 Oeste 0 926.2 -0.5 47
2019-05-25 13:00:00 19.2 9 Oeste 19 Oeste 0 926.5 0.1 48
2019-05-25 12:00:00 18.1 4 Sudeste 12 Este 0 926.6 0.2 45
2019-05-25 11:00:00 15.6 5 Noroeste 14 Noroeste 0 926.7 0.6 51
2019-05-25 10:00:00 13 3 Nordeste 12 Oeste 0 926.4 0.7 67
2019-05-25 09:00:00 10.5 6 Noroeste 15 Noroeste 0 926.4 0.7 76
2019-05-25 08:00:00 6.6 6 Noroeste 17 Noroeste 0 926.1 0.5 91
2019-05-25 07:00:00 5.4 8 Oeste 16 Oeste 0 925.7 0 92
2019-05-25 06:00:00 5.9 6 Oeste 14 Oeste 0 925.7 -0.2 92
2019-05-25 05:00:00 6 7 Noroeste 12 Oeste 0 925.6 -0.4 92
2019-05-25 04:00:00 6.6 8 Noroeste 14 Oeste 0 925.7 -0.3 91
2019-05-25 03:00:00 7.1 7 Oeste 15 Oeste 0 925.9 0.1 91
2019-05-25 02:00:00 7.9 5 Noroeste 21 Oeste 0 926 0.5 87
2019-05-25 01:00:00 8.7 13 Oeste 24 Oeste 0 926 1.3 87
2019-05-25 00:00:00 9.5 8 Oeste 23 Oeste 0 925.8 1.7 83